createdAt,value
2022-08-28T00:00:40.298Z,15.22
2022-08-28T00:03:11.191Z,15.10
2022-08-28T00:05:41.256Z,14.98
2022-08-28T00:08:12.756Z,14.96
2022-08-28T00:10:41.809Z,15.01
2022-08-28T00:13:18.488Z,15.06
2022-08-28T00:15:50.999Z,15.11
2022-08-28T00:18:20.015Z,15.12
2022-08-28T00:20:49.666Z,15.06
2022-08-28T00:23:18.865Z,15.03
2022-08-28T00:25:46.629Z,14.99
2022-08-28T00:28:23.681Z,14.92
2022-08-28T00:30:57.273Z,14.88
2022-08-28T00:33:33.217Z,14.89
2022-08-28T00:36:02.887Z,14.92
2022-08-28T00:38:31.356Z,14.90
2022-08-28T00:41:04.073Z,14.85
2022-08-28T00:43:42.715Z,14.85
2022-08-28T00:46:20.442Z,14.90
2022-08-28T00:48:50.014Z,14.92
2022-08-28T00:51:38.239Z,14.89
2022-08-28T00:54:08.290Z,14.87
2022-08-28T00:56:40.709Z,14.91
2022-08-28T00:59:15.261Z,14.90
2022-08-28T01:01:46.284Z,14.89
2022-08-28T01:04:18.011Z,14.90
2022-08-28T01:06:49.930Z,14.91
2022-08-28T01:09:20.889Z,14.96
2022-08-28T01:11:52.896Z,14.97
2022-08-28T01:14:23.281Z,14.90
2022-08-28T01:16:56.145Z,14.81
2022-08-28T01:19:38.909Z,14.73
2022-08-28T01:22:26.057Z,14.72
2022-08-28T01:24:59.258Z,14.65
2022-08-28T01:27:27.807Z,14.62
2022-08-28T01:29:56.052Z,14.55
2022-08-28T01:32:41.596Z,14.42
2022-08-28T01:35:15.571Z,14.35
2022-08-28T01:37:43.915Z,14.25
2022-08-28T01:40:17.525Z,14.24
2022-08-28T01:42:45.371Z,14.21
2022-08-28T01:45:17.362Z,14.16
2022-08-28T01:47:46.623Z,14.16
2022-08-28T01:50:20.780Z,14.21
2022-08-28T01:52:48.587Z,14.25
2022-08-28T01:55:16.475Z,14.25
2022-08-28T01:57:53.826Z,14.21
2022-08-28T02:00:26.910Z,14.16
2022-08-28T02:02:58.300Z,14.15
2022-08-28T02:05:28.355Z,14.11
2022-08-28T02:07:57.634Z,14.13
2022-08-28T02:10:27.863Z,14.11
2022-08-28T02:12:59.086Z,14.12
2022-08-28T02:15:28.945Z,14.09
2022-08-28T02:17:57.486Z,14.00
2022-08-28T02:20:26.254Z,13.96
2022-08-28T02:22:54.123Z,13.93
2022-08-28T02:25:22.329Z,13.85
2022-08-28T02:27:50.310Z,13.81
2022-08-28T02:30:18.085Z,13.78
2022-08-28T02:32:46.603Z,13.75
2022-08-28T02:35:18.818Z,13.71
2022-08-28T02:37:47.864Z,13.73
2022-08-28T02:40:22.372Z,13.72
2022-08-28T02:42:50.508Z,13.76
2022-08-28T02:45:20.251Z,13.76
2022-08-28T02:47:51.450Z,13.71
2022-08-28T02:50:21.167Z,13.69
2022-08-28T02:52:49.304Z,13.73
2022-08-28T02:55:19.640Z,13.75
2022-08-28T02:57:48.355Z,13.71
2022-08-28T03:00:22.738Z,13.71
2022-08-28T03:02:52.999Z,13.73
2022-08-28T03:05:26.845Z,13.67
2022-08-28T03:07:55.771Z,13.64
2022-08-28T03:10:23.974Z,13.66
2022-08-28T03:12:51.808Z,13.58
2022-08-28T03:15:19.808Z,13.56
2022-08-28T03:17:47.969Z,13.55
2022-08-28T03:20:16.526Z,13.52
2022-08-28T03:23:03.040Z,13.51
2022-08-28T03:25:31.122Z,13.55
2022-08-28T03:27:58.882Z,13.56
2022-08-28T03:30:27.281Z,13.52
2022-08-28T03:32:55.143Z,13.49
2022-08-28T03:35:23.422Z,13.47
2022-08-28T03:37:51.700Z,13.49
2022-08-28T03:40:20.381Z,13.49
2022-08-28T03:42:53.288Z,13.43
2022-08-28T03:45:22.394Z,13.37
2022-08-28T03:47:51.061Z,13.31
2022-08-28T03:50:19.721Z,13.35
2022-08-28T03:52:47.654Z,13.41
2022-08-28T03:55:15.972Z,13.40
2022-08-28T03:57:43.677Z,13.40
2022-08-28T04:00:13.491Z,13.40
2022-08-28T04:02:43.872Z,13.32
2022-08-28T04:05:12.965Z,13.33
2022-08-28T04:07:40.687Z,13.35
2022-08-28T04:10:09.125Z,13.34
2022-08-28T04:12:37.131Z,13.31
2022-08-28T04:15:07.081Z,13.27
2022-08-28T04:17:38.194Z,13.22
2022-08-28T04:20:10.258Z,13.16
2022-08-28T04:22:39.130Z,13.15
2022-08-28T04:25:07.729Z,13.19
2022-08-28T04:27:35.587Z,13.19
2022-08-28T04:30:05.392Z,13.17
2022-08-28T04:32:35.598Z,13.19
2022-08-28T04:35:07.156Z,13.22
2022-08-28T04:37:36.504Z,13.28
2022-08-28T04:40:09.873Z,13.32
2022-08-28T04:42:40.052Z,13.36
2022-08-28T04:45:08.426Z,13.44
2022-08-28T04:47:38.820Z,13.46
2022-08-28T04:50:07.811Z,13.47
2022-08-28T04:52:35.630Z,13.48
2022-08-28T04:55:05.023Z,13.53
2022-08-28T04:57:36.246Z,13.57
2022-08-28T05:00:07.269Z,13.62
2022-08-28T05:02:35.092Z,13.63
2022-08-28T05:05:04.254Z,13.65
2022-08-28T05:07:33.014Z,13.66
2022-08-28T05:10:00.785Z,13.69
2022-08-28T05:12:28.438Z,13.72
2022-08-28T05:14:56.213Z,13.76
2022-08-28T05:17:23.948Z,13.79
2022-08-28T05:19:54.309Z,13.80
2022-08-28T05:22:22.075Z,13.81
2022-08-28T05:24:49.911Z,13.83
2022-08-28T05:27:17.729Z,13.89
2022-08-28T05:29:45.573Z,13.93
2022-08-28T05:32:13.306Z,13.98
2022-08-28T05:34:41.105Z,14.01
2022-08-28T05:37:09.656Z,14.01
2022-08-28T05:39:37.373Z,14.07
2022-08-28T05:42:05.624Z,14.11
2022-08-28T05:44:33.303Z,14.10
2022-08-28T05:47:00.996Z,14.11
2022-08-28T05:49:28.682Z,14.16
2022-08-28T05:51:56.542Z,14.23
2022-08-28T05:54:24.445Z,14.22
2022-08-28T05:56:52.141Z,14.27
2022-08-28T05:59:19.886Z,14.32
2022-08-28T06:01:49.620Z,14.34
2022-08-28T06:04:27.063Z,14.38
2022-08-28T06:06:55.829Z,14.43
2022-08-28T06:09:29.732Z,14.48
2022-08-28T06:12:02.287Z,14.55
2022-08-28T06:14:31.973Z,14.62
2022-08-28T06:17:02.430Z,14.66
2022-08-28T06:19:32.623Z,14.69
2022-08-28T06:22:07.367Z,14.81
2022-08-28T06:24:36.633Z,14.91
2022-08-28T06:27:05.194Z,14.96
2022-08-28T06:29:33.127Z,14.98
2022-08-28T06:32:04.878Z,15.06
2022-08-28T06:34:33.331Z,15.16
2022-08-28T06:37:01.301Z,15.23
2022-08-28T06:39:29.161Z,15.30
2022-08-28T06:41:56.941Z,15.39
2022-08-28T06:44:24.910Z,15.49
2022-08-28T06:46:54.558Z,15.62
2022-08-28T06:49:22.720Z,15.79
2022-08-28T06:51:51.078Z,15.90
2022-08-28T06:54:22.689Z,16.02
2022-08-28T06:56:52.433Z,16.17
2022-08-28T06:59:20.720Z,16.32
2022-08-28T07:01:48.569Z,16.47
2022-08-28T07:04:16.593Z,16.53
2022-08-28T07:06:47.118Z,16.59
2022-08-28T07:09:16.296Z,16.63
2022-08-28T07:11:49.073Z,16.64
2022-08-28T07:14:17.252Z,16.68
2022-08-28T07:16:45.037Z,16.75
2022-08-28T07:19:14.189Z,16.77
2022-08-28T07:21:45.168Z,16.79
2022-08-28T07:24:16.051Z,16.81
2022-08-28T07:26:46.080Z,16.85
2022-08-28T07:29:14.586Z,16.86
2022-08-28T07:31:46.722Z,16.89
2022-08-28T07:34:17.441Z,16.95
2022-08-28T07:36:45.751Z,17.02
2022-08-28T07:39:15.586Z,17.09
2022-08-28T07:41:43.644Z,17.14
2022-08-28T07:44:33.633Z,17.21
2022-08-28T07:47:05.707Z,17.28
2022-08-28T07:49:35.145Z,17.41
2022-08-28T07:52:04.445Z,17.52
2022-08-28T07:54:32.654Z,17.61
2022-08-28T07:57:02.089Z,17.68
2022-08-28T07:59:36.602Z,17.76
2022-08-28T08:02:07.070Z,17.87
2022-08-28T08:04:35.346Z,17.93
2022-08-28T08:07:04.861Z,18.00
2022-08-28T08:09:42.118Z,18.07
2022-08-28T08:12:13.497Z,18.20
2022-08-28T08:14:43.429Z,18.26
2022-08-28T08:17:11.841Z,18.26
2022-08-28T08:19:39.876Z,18.27
2022-08-28T08:22:07.708Z,18.33
2022-08-28T08:24:35.601Z,18.39
2022-08-28T08:27:03.531Z,18.46
2022-08-28T08:29:35.951Z,18.58
2022-08-28T08:32:11.044Z,18.66
2022-08-28T08:34:49.303Z,18.75
2022-08-28T08:37:17.035Z,18.86
2022-08-28T08:39:44.787Z,18.94
2022-08-28T08:42:25.407Z,19.05
2022-08-28T08:44:57.966Z,19.19
2022-08-28T08:47:53.929Z,19.28
2022-08-28T08:50:32.894Z,19.34
2022-08-28T08:53:25.689Z,19.36
2022-08-28T08:55:57.000Z,19.46
2022-08-28T08:58:35.198Z,19.53
2022-08-28T09:01:39.173Z,19.54
2022-08-28T09:04:21.652Z,19.63
2022-08-28T09:07:01.115Z,19.65
2022-08-28T09:09:34.069Z,19.69
2022-08-28T09:12:05.610Z,19.77
2022-08-28T09:15:05.143Z,19.89
2022-08-28T09:17:41.289Z,20.00
2022-08-28T09:20:15.990Z,20.13
2022-08-28T09:22:47.345Z,20.28
2022-08-28T09:25:59.688Z,20.41
2022-08-28T09:28:36.118Z,20.59
2022-08-28T09:31:15.605Z,20.76
2022-08-28T09:33:52.156Z,20.89
2022-08-28T09:36:32.520Z,20.97
2022-08-28T09:39:27.699Z,21.09
2022-08-28T09:42:34.152Z,21.19
2022-08-28T09:45:20.973Z,21.23
2022-08-28T09:47:56.370Z,21.32
2022-08-28T09:50:31.802Z,21.44
2022-08-28T09:53:15.189Z,21.52
2022-08-28T09:56:11.774Z,21.53
2022-08-28T09:58:43.921Z,21.50
2022-08-28T10:02:04.979Z,21.52
2022-08-28T10:05:03.237Z,21.66
2022-08-28T10:07:43.377Z,21.73
2022-08-28T10:10:45.042Z,21.72
2022-08-28T10:13:54.356Z,21.63
2022-08-28T10:17:32.444Z,21.77
2022-08-28T10:20:15.583Z,21.85
2022-08-28T10:23:05.115Z,21.91
2022-08-28T10:25:59.393Z,21.97
2022-08-28T10:28:41.513Z,21.98
2022-08-28T10:31:45.235Z,21.96
2022-08-28T10:34:30.803Z,21.98
2022-08-28T10:37:36.986Z,21.99
2022-08-28T10:40:17.640Z,22.02
2022-08-28T10:42:59.745Z,22.11
2022-08-28T10:45:33.320Z,22.20
2022-08-28T10:48:11.129Z,22.33
2022-08-28T10:50:47.944Z,22.39
2022-08-28T10:53:42.254Z,22.53
2022-08-28T10:56:26.008Z,22.51
2022-08-28T10:58:59.488Z,22.37
2022-08-28T11:01:40.629Z,22.38
2022-08-28T11:04:24.870Z,22.43
2022-08-28T11:07:32.240Z,22.40
2022-08-28T11:10:32.222Z,22.41
2022-08-28T11:13:02.801Z,22.55
2022-08-28T11:15:36.838Z,22.64
2022-08-28T11:18:41.639Z,22.79
2022-08-28T11:21:33.070Z,22.91
2022-08-28T11:24:18.033Z,22.99
2022-08-28T11:27:05.457Z,23.12
2022-08-28T11:30:10.805Z,23.32
2022-08-28T11:32:50.312Z,23.50
2022-08-28T11:35:20.945Z,23.56
2022-08-28T11:37:52.740Z,23.61
2022-08-28T11:40:32.701Z,23.61
2022-08-28T11:43:29.584Z,23.63
2022-08-28T11:46:00.351Z,23.79
2022-08-28T11:48:37.405Z,23.91
2022-08-28T11:51:17.049Z,24.11
2022-08-28T11:54:17.333Z,24.31
2022-08-28T11:57:05.323Z,24.35
2022-08-28T11:59:53.414Z,24.31
2022-08-28T12:02:39.832Z,24.22
2022-08-28T12:05:32.497Z,24.14
2022-08-28T12:08:04.985Z,24.03
2022-08-28T12:10:32.811Z,24.09
2022-08-28T12:13:05.078Z,24.15
2022-08-28T12:15:33.572Z,24.17
2022-08-28T12:18:12.002Z,24.19
2022-08-28T12:21:01.054Z,24.24
2022-08-28T12:23:41.532Z,24.35
2022-08-28T12:26:22.394Z,24.45
2022-08-28T12:29:01.183Z,24.70
2022-08-28T12:31:48.827Z,24.99
2022-08-28T12:34:43.605Z,25.14
2022-08-28T12:37:52.176Z,25.19
2022-08-28T12:40:30.450Z,25.07
2022-08-28T12:43:04.180Z,25.15
2022-08-28T12:45:55.462Z,25.18
2022-08-28T12:48:25.094Z,25.32
2022-08-28T12:51:11.808Z,25.38
2022-08-28T12:53:50.781Z,25.30
2022-08-28T12:56:21.894Z,25.08
2022-08-28T12:58:50.806Z,25.04
2022-08-28T13:01:21.808Z,25.13
2022-08-28T13:03:53.433Z,25.33
2022-08-28T13:06:32.822Z,25.39
2022-08-28T13:09:14.105Z,25.35
2022-08-28T13:11:49.148Z,25.40
2022-08-28T13:14:46.062Z,25.53
2022-08-28T13:17:17.518Z,25.74
2022-08-28T13:19:45.297Z,25.94
2022-08-28T13:22:35.740Z,26.14
2022-08-28T13:25:05.418Z,26.25
2022-08-28T13:27:33.286Z,26.34
2022-08-28T13:30:29.048Z,26.39
2022-08-28T13:33:02.561Z,26.40
2022-08-28T13:35:36.802Z,26.30
2022-08-28T13:38:10.555Z,26.15
2022-08-28T13:41:01.844Z,26.16
2022-08-28T13:43:45.256Z,26.13
2022-08-28T13:46:13.755Z,26.19
2022-08-28T13:48:41.516Z,26.21
2022-08-28T13:51:20.209Z,26.15
2022-08-28T13:53:50.443Z,26.00
2022-08-28T13:56:21.940Z,25.85
2022-08-28T13:58:57.298Z,25.73
2022-08-28T14:01:46.404Z,25.56
2022-08-28T14:04:14.593Z,25.50
2022-08-28T14:06:44.071Z,25.63
2022-08-28T14:09:15.426Z,25.71
2022-08-28T14:11:47.862Z,25.64
2022-08-28T14:14:16.899Z,25.49
2022-08-28T14:16:45.874Z,25.36
2022-08-28T14:19:13.684Z,25.27
2022-08-28T14:21:41.831Z,25.47
2022-08-28T14:24:10.098Z,25.68
2022-08-28T14:26:38.576Z,25.65
2022-08-28T14:29:09.508Z,25.44
2022-08-28T14:31:37.726Z,25.16
2022-08-28T14:34:05.489Z,24.96
2022-08-28T14:36:33.417Z,24.82
2022-08-28T14:39:06.163Z,24.62
2022-08-28T14:41:35.505Z,24.44
2022-08-28T14:44:04.573Z,24.26
2022-08-28T14:46:35.881Z,24.12
2022-08-28T14:49:10.782Z,24.14
2022-08-28T14:51:42.360Z,24.28
2022-08-28T14:54:14.492Z,24.50
2022-08-28T14:56:45.091Z,24.74
2022-08-28T14:59:21.884Z,24.93
2022-08-28T15:01:55.492Z,25.01
2022-08-28T15:04:26.047Z,24.94
2022-08-28T15:06:59.670Z,24.84
2022-08-28T15:09:27.975Z,24.73
2022-08-28T15:11:56.094Z,24.64
2022-08-28T15:14:24.011Z,24.60
2022-08-28T15:16:52.937Z,24.56
2022-08-28T15:19:23.276Z,24.43
2022-08-28T15:21:55.064Z,24.28
2022-08-28T15:24:31.355Z,24.19
2022-08-28T15:26:59.844Z,24.21
2022-08-28T15:29:29.932Z,24.17
2022-08-28T15:31:58.752Z,24.11
2022-08-28T15:34:28.493Z,24.00
2022-08-28T15:36:58.130Z,23.95
2022-08-28T15:39:47.362Z,23.82
2022-08-28T15:42:15.320Z,23.68
2022-08-28T15:44:44.330Z,23.59
2022-08-28T15:47:13.760Z,23.55
2022-08-28T15:49:44.798Z,23.55
2022-08-28T15:52:18.766Z,23.56
2022-08-28T15:54:48.806Z,23.61
2022-08-28T15:57:17.495Z,23.61
2022-08-28T15:59:49.668Z,23.62
2022-08-28T16:02:23.013Z,23.64
2022-08-28T16:04:53.576Z,23.70
2022-08-28T16:07:22.859Z,23.79
2022-08-28T16:09:51.634Z,23.86
2022-08-28T16:12:19.632Z,23.86
2022-08-28T16:14:47.366Z,23.83
2022-08-28T16:17:15.080Z,23.76
2022-08-28T16:19:43.075Z,23.70
2022-08-28T16:22:15.858Z,23.73
2022-08-28T16:24:45.619Z,23.76
2022-08-28T16:27:15.811Z,23.82
2022-08-28T16:29:45.530Z,23.88
2022-08-28T16:32:13.310Z,23.85
2022-08-28T16:34:41.681Z,23.86
2022-08-28T16:37:13.337Z,23.90
2022-08-28T16:39:46.440Z,23.94
2022-08-28T16:42:14.310Z,24.03
2022-08-28T16:44:42.065Z,24.08
2022-08-28T16:47:10.250Z,24.13
2022-08-28T16:49:38.118Z,24.08
2022-08-28T16:52:06.076Z,24.09
2022-08-28T16:54:33.850Z,24.06
2022-08-28T16:57:02.110Z,23.96
2022-08-28T16:59:29.889Z,23.87
2022-08-28T17:01:57.668Z,23.76
2022-08-28T17:04:25.821Z,23.63
2022-08-28T17:06:53.598Z,23.55
2022-08-28T17:09:23.548Z,23.46
2022-08-28T17:11:52.096Z,23.36
2022-08-28T17:14:22.187Z,23.26
2022-08-28T17:16:52.054Z,23.14
2022-08-28T17:19:20.941Z,23.06
2022-08-28T17:22:07.724Z,23.00
2022-08-28T17:24:35.577Z,22.93
2022-08-28T17:27:05.892Z,22.84
2022-08-28T17:29:36.362Z,22.80
2022-08-28T17:32:05.748Z,22.80
2022-08-28T17:34:34.622Z,22.74
2022-08-28T17:37:04.185Z,22.64
2022-08-28T17:39:32.115Z,22.57
2022-08-28T17:41:59.978Z,22.56
2022-08-28T17:44:27.945Z,22.55
2022-08-28T17:46:56.021Z,22.59
2022-08-28T17:49:23.813Z,22.60
2022-08-28T17:51:51.519Z,22.64
2022-08-28T17:54:24.407Z,22.67
2022-08-28T17:56:54.514Z,22.66
2022-08-28T17:59:25.148Z,22.64
2022-08-28T18:01:53.927Z,22.60
2022-08-28T18:04:24.399Z,22.56
2022-08-28T18:06:54.605Z,22.51
2022-08-28T18:09:23.929Z,22.38
2022-08-28T18:11:53.395Z,22.26
2022-08-28T18:14:21.647Z,22.17
2022-08-28T18:16:50.057Z,22.10
2022-08-28T18:19:18.253Z,21.99
2022-08-28T18:21:46.235Z,21.88
2022-08-28T18:24:14.086Z,21.78
2022-08-28T18:26:43.777Z,21.70
2022-08-28T18:29:12.555Z,21.60
2022-08-28T18:31:41.967Z,21.44
2022-08-28T18:34:10.627Z,21.29
2022-08-28T18:36:43.428Z,21.14
2022-08-28T18:39:11.836Z,20.98
2022-08-28T18:41:43.879Z,20.84
2022-08-28T18:44:17.706Z,20.72
2022-08-28T18:46:48.236Z,20.57
2022-08-28T18:49:16.656Z,20.42
2022-08-28T18:51:45.833Z,20.33
2022-08-28T18:54:16.982Z,20.25
2022-08-28T18:56:45.662Z,20.20
2022-08-28T18:59:13.631Z,20.17
2022-08-28T19:01:42.095Z,20.11
2022-08-28T19:04:10.074Z,20.05
2022-08-28T19:06:38.097Z,20.01
2022-08-28T19:09:06.350Z,20.00
2022-08-28T19:11:35.886Z,19.99
2022-08-28T19:14:04.228Z,19.98
2022-08-28T19:16:32.266Z,19.96
2022-08-28T19:19:02.069Z,19.94
2022-08-28T19:21:30.352Z,19.89
2022-08-28T19:23:58.162Z,19.88
2022-08-28T19:26:27.657Z,19.85
2022-08-28T19:28:56.669Z,19.76
2022-08-28T19:31:27.264Z,19.68
2022-08-28T19:33:57.393Z,19.58
2022-08-28T19:36:27.349Z,19.52
2022-08-28T19:38:55.238Z,19.46
2022-08-28T19:41:23.421Z,19.39
2022-08-28T19:43:51.492Z,19.37
2022-08-28T19:46:20.595Z,19.36
2022-08-28T19:48:52.093Z,19.30
2022-08-28T19:51:24.034Z,19.25
2022-08-28T19:53:58.213Z,19.21
2022-08-28T19:56:33.187Z,19.15
2022-08-28T19:59:04.108Z,19.12
2022-08-28T20:01:37.745Z,19.05
2022-08-28T20:04:08.637Z,18.94
2022-08-28T20:06:37.103Z,18.85
2022-08-28T20:09:09.430Z,18.78
2022-08-28T20:11:42.062Z,18.73
2022-08-28T20:14:09.946Z,18.64
2022-08-28T20:16:42.861Z,18.61
2022-08-28T20:19:12.663Z,18.54
2022-08-28T20:21:44.262Z,18.52
2022-08-28T20:24:17.672Z,18.51
2022-08-28T20:26:45.447Z,18.47
2022-08-28T20:29:14.765Z,18.45
2022-08-28T20:31:47.214Z,18.41
2022-08-28T20:34:18.320Z,18.38
2022-08-28T20:36:46.759Z,18.36
2022-08-28T20:39:15.625Z,18.34
2022-08-28T20:41:44.626Z,18.34
2022-08-28T20:44:16.366Z,18.31
2022-08-28T20:46:48.972Z,18.31
2022-08-28T20:49:23.808Z,18.27
2022-08-28T20:52:00.767Z,18.24
2022-08-28T20:54:36.948Z,18.28
2022-08-28T20:57:09.660Z,18.22
2022-08-28T20:59:41.252Z,18.17
2022-08-28T21:02:14.044Z,18.18
2022-08-28T21:04:44.375Z,18.13
2022-08-28T21:07:15.153Z,18.10
2022-08-28T21:10:05.205Z,18.08
2022-08-28T21:12:31.348Z,18.06
2022-08-28T21:14:59.761Z,18.06
2022-08-28T21:17:29.544Z,18.03
2022-08-28T21:20:02.859Z,18.02
2022-08-28T21:22:33.034Z,17.99
2022-08-28T21:25:06.297Z,17.90
2022-08-28T21:27:35.215Z,17.81
2022-08-28T21:30:06.146Z,17.77
2022-08-28T21:32:34.990Z,17.76
2022-08-28T21:35:06.624Z,17.74
2022-08-28T21:37:35.204Z,17.65
2022-08-28T21:40:07.276Z,17.55
2022-08-28T21:42:36.215Z,17.48
2022-08-28T21:45:11.266Z,17.48
2022-08-28T21:47:41.883Z,17.50
2022-08-28T21:50:11.360Z,17.47
2022-08-28T21:52:39.402Z,17.35
2022-08-28T21:55:14.908Z,17.26
2022-08-28T21:57:43.117Z,17.19
2022-08-28T22:00:19.734Z,17.16
2022-08-28T22:02:48.584Z,17.12
2022-08-28T22:05:17.102Z,17.03
2022-08-28T22:07:45.161Z,17.02
2022-08-28T22:10:13.058Z,17.01
2022-08-28T22:12:40.891Z,17.00
2022-08-28T22:15:09.015Z,17.01
2022-08-28T22:17:36.807Z,16.97
2022-08-28T22:20:05.615Z,16.98
2022-08-28T22:22:52.193Z,16.98
2022-08-28T22:25:20.090Z,16.92
2022-08-28T22:27:47.878Z,16.87
2022-08-28T22:30:15.687Z,16.87
2022-08-28T22:32:45.296Z,16.91
2022-08-28T22:35:13.058Z,16.86
2022-08-28T22:37:40.910Z,16.84
2022-08-28T22:40:13.471Z,16.85
2022-08-28T22:42:42.667Z,16.89
2022-08-28T22:45:10.943Z,16.97
2022-08-28T22:47:39.684Z,17.04
2022-08-28T22:50:08.516Z,17.01
2022-08-28T22:52:37.202Z,16.96
2022-08-28T22:55:10.463Z,16.89
2022-08-28T22:57:40.338Z,16.84
2022-08-28T23:00:14.070Z,16.76
2022-08-28T23:02:42.550Z,16.70
2022-08-28T23:05:11.110Z,16.69
2022-08-28T23:07:38.974Z,16.69
2022-08-28T23:10:08.387Z,16.72
2022-08-28T23:12:36.419Z,16.72
2022-08-28T23:15:11.829Z,16.72
2022-08-28T23:17:39.749Z,16.70
2022-08-28T23:20:13.276Z,16.77
2022-08-28T23:22:41.311Z,16.77
2022-08-28T23:25:15.649Z,16.74
2022-08-28T23:27:45.197Z,16.72
2022-08-28T23:30:16.151Z,16.72
2022-08-28T23:32:44.399Z,16.72
2022-08-28T23:35:14.156Z,16.74
2022-08-28T23:37:48.034Z,16.75
2022-08-28T23:40:21.787Z,16.76
2022-08-28T23:42:50.285Z,16.79
2022-08-28T23:45:20.100Z,16.74
2022-08-28T23:47:48.194Z,16.64
2022-08-28T23:50:22.062Z,16.59
2022-08-28T23:52:50.812Z,16.58
2022-08-28T23:55:19.898Z,16.58
2022-08-28T23:57:48.206Z,16.54
